createdAt,value
2017-06-10T00:00:02.584Z,0
2017-06-10T00:01:02.581Z,0
2017-06-10T00:02:02.271Z,0
2017-06-10T00:03:02.568Z,0
2017-06-10T00:04:02.266Z,0
2017-06-10T00:05:02.560Z,0
2017-06-10T00:06:02.558Z,0
2017-06-10T00:07:02.553Z,0
2017-06-10T00:08:02.548Z,0
2017-06-10T00:09:02.542Z,0
2017-06-10T00:10:02.540Z,0
2017-06-10T00:11:02.537Z,0
2017-06-10T00:12:02.230Z,0
2017-06-10T00:13:02.527Z,0
2017-06-10T00:14:02.524Z,0
2017-06-10T00:15:02.221Z,0
2017-06-10T00:16:02.515Z,0
2017-06-10T00:17:02.518Z,0
2017-06-10T00:18:02.505Z,0
2017-06-10T00:19:02.503Z,0
2017-06-10T00:20:02.497Z,0
2017-06-10T00:21:02.496Z,0
2017-06-10T00:22:02.488Z,0
2017-06-10T00:23:02.489Z,0
2017-06-10T00:24:02.489Z,0
2017-06-10T00:25:02.174Z,0
2017-06-10T00:26:02.479Z,0
2017-06-10T00:27:02.171Z,0
2017-06-10T00:28:02.467Z,0
2017-06-10T00:29:02.162Z,0
2017-06-10T00:30:02.454Z,0
2017-06-10T00:31:02.455Z,0
2017-06-10T00:32:02.449Z,0
2017-06-10T00:33:02.442Z,0
2017-06-10T00:34:02.441Z,0
2017-06-10T00:35:02.435Z,0
2017-06-10T00:36:02.434Z,0
2017-06-10T00:37:02.430Z,0
2017-06-10T00:38:02.427Z,0
2017-06-10T00:39:02.422Z,0
2017-06-10T00:40:02.418Z,0
2017-06-10T00:41:02.411Z,0
2017-06-10T00:42:02.405Z,0
2017-06-10T00:43:02.105Z,0
2017-06-10T00:44:02.397Z,0
2017-06-10T00:45:02.395Z,0
2017-06-10T00:46:02.388Z,0
2017-06-10T00:47:02.385Z,0
2017-06-10T00:48:02.377Z,0
2017-06-10T00:49:02.376Z,0
2017-06-10T00:50:02.370Z,0
2017-06-10T00:51:02.064Z,0
2017-06-10T00:52:02.362Z,0
2017-06-10T00:53:02.362Z,0
2017-06-10T00:54:02.049Z,0
2017-06-10T00:55:01.749Z,0
2017-06-10T00:56:02.344Z,0
2017-06-10T00:57:02.338Z,0
2017-06-10T00:58:02.037Z,0
2017-06-10T00:59:02.329Z,0
2017-06-10T01:00:02.330Z,0
2017-06-10T01:01:02.324Z,0
2017-06-10T01:02:02.320Z,0
2017-06-10T01:03:02.014Z,0
2017-06-10T01:04:02.315Z,0
2017-06-10T01:05:02.307Z,0
2017-06-10T01:06:02.300Z,0
2017-06-10T01:07:02.295Z,0
2017-06-10T01:08:02.293Z,0
2017-06-10T01:09:02.286Z,0
2017-06-10T01:10:02.284Z,0
2017-06-10T01:11:02.281Z,0
2017-06-10T01:12:01.969Z,0
2017-06-10T01:13:02.274Z,0
2017-06-10T01:14:01.966Z,0
2017-06-10T01:15:01.955Z,0
2017-06-10T01:16:02.278Z,0
2017-06-10T01:17:02.250Z,0
2017-06-10T01:18:02.249Z,0
2017-06-10T01:19:02.245Z,0
2017-06-10T01:20:01.936Z,0
2017-06-10T01:21:01.927Z,0
2017-06-10T01:22:02.227Z,0
2017-06-10T01:23:01.921Z,0
2017-06-10T01:24:02.218Z,0
2017-06-10T01:25:02.221Z,0
2017-06-10T01:26:02.211Z,0
2017-06-10T01:27:01.902Z,0
2017-06-10T01:28:02.202Z,0
2017-06-10T01:29:02.195Z,0
2017-06-10T01:30:02.192Z,0
2017-06-10T01:31:02.189Z,0
2017-06-10T01:32:02.187Z,0
2017-06-10T01:33:02.179Z,0
2017-06-10T01:34:02.183Z,0
2017-06-10T01:35:02.175Z,0
2017-06-10T01:36:02.169Z,0
2017-06-10T01:37:01.860Z,0
2017-06-10T01:38:02.158Z,0
2017-06-10T01:39:01.850Z,0
2017-06-10T01:40:02.153Z,0
2017-06-10T01:41:02.155Z,0
2017-06-10T01:42:02.145Z,0
2017-06-10T01:43:02.139Z,0
2017-06-10T01:44:02.135Z,0
2017-06-10T01:45:02.128Z,0
2017-06-10T01:46:02.126Z,0
2017-06-10T01:47:02.119Z,0
2017-06-10T01:48:02.116Z,0
2017-06-10T01:49:02.113Z,0
2017-06-10T01:50:02.117Z,0
2017-06-10T01:51:01.803Z,0
2017-06-10T01:52:02.101Z,0
2017-06-10T01:53:02.096Z,0
2017-06-10T01:54:02.092Z,0
2017-06-10T01:55:02.087Z,0
2017-06-10T01:56:02.085Z,0
2017-06-10T01:57:02.080Z,0
2017-06-10T01:58:02.074Z,0
2017-06-10T01:59:01.775Z,0
2017-06-10T02:00:02.067Z,4
2017-06-10T02:01:01.760Z,4
2017-06-10T02:02:02.066Z,4
2017-06-10T02:03:01.755Z,4
2017-06-10T02:04:02.052Z,4
2017-06-10T02:05:02.047Z,4
2017-06-10T02:06:02.041Z,4
2017-06-10T02:07:02.048Z,4
2017-06-10T02:08:01.738Z,8
2017-06-10T02:09:02.033Z,4
2017-06-10T02:10:01.724Z,4
2017-06-10T02:11:02.020Z,8
2017-06-10T02:12:02.018Z,8
2017-06-10T02:13:02.013Z,8
2017-06-10T02:14:02.019Z,4
2017-06-10T02:15:02.007Z,4
2017-06-10T02:16:02.040Z,8
2017-06-10T02:17:01.997Z,8
2017-06-10T02:18:01.992Z,12
2017-06-10T02:19:01.696Z,16
2017-06-10T02:20:01.683Z,20
2017-06-10T02:21:01.978Z,20
2017-06-10T02:22:01.682Z,24
2017-06-10T02:23:01.670Z,28
2017-06-10T02:24:01.362Z,32
2017-06-10T02:25:01.660Z,36
2017-06-10T02:26:01.963Z,40
2017-06-10T02:27:01.955Z,44
2017-06-10T02:28:01.951Z,52
2017-06-10T02:29:01.644Z,56
2017-06-10T02:30:01.945Z,60
2017-06-10T02:31:01.938Z,68
2017-06-10T02:32:01.958Z,76
2017-06-10T02:33:01.930Z,76
2017-06-10T02:34:01.925Z,84
2017-06-10T02:35:01.920Z,92
2017-06-10T02:36:01.923Z,100
2017-06-10T02:37:01.607Z,108
2017-06-10T02:38:01.904Z,120
2017-06-10T02:39:01.902Z,132
2017-06-10T02:40:01.902Z,144
2017-06-10T02:41:01.900Z,156
2017-06-10T02:42:01.887Z,172
2017-06-10T02:43:01.906Z,184
2017-06-10T02:44:01.583Z,192
2017-06-10T02:45:01.574Z,200
2017-06-10T02:46:01.875Z,208
2017-06-10T02:47:01.565Z,220
2017-06-10T02:48:01.860Z,228
2017-06-10T02:49:01.860Z,244
2017-06-10T02:50:01.867Z,268
2017-06-10T02:51:01.853Z,280
2017-06-10T02:52:01.846Z,292
2017-06-10T02:53:01.839Z,296
2017-06-10T02:54:01.836Z,296
2017-06-10T02:55:01.833Z,288
2017-06-10T02:56:01.825Z,280
2017-06-10T02:57:01.823Z,288
2017-06-10T02:58:01.825Z,304
2017-06-10T02:59:01.813Z,320
2017-06-10T03:00:01.813Z,344
2017-06-10T03:01:01.501Z,372
2017-06-10T03:02:01.500Z,392
2017-06-10T03:03:01.495Z,416
2017-06-10T03:04:01.796Z,444
2017-06-10T03:05:01.785Z,480
2017-06-10T03:06:01.789Z,508
2017-06-10T03:07:01.780Z,540
2017-06-10T03:08:01.772Z,576
2017-06-10T03:09:01.774Z,592
2017-06-10T03:10:01.765Z,588
2017-06-10T03:11:01.458Z,584
2017-06-10T03:12:01.456Z,596
2017-06-10T03:13:01.751Z,608
2017-06-10T03:14:01.443Z,620
2017-06-10T03:15:01.467Z,664
2017-06-10T03:16:01.736Z,748
2017-06-10T03:17:01.435Z,836
2017-06-10T03:18:01.725Z,872
2017-06-10T03:19:01.723Z,880
2017-06-10T03:20:01.424Z,896
2017-06-10T03:21:01.714Z,928
2017-06-10T03:22:01.709Z,1020
2017-06-10T03:23:01.713Z,1152
2017-06-10T03:24:01.706Z,1256
2017-06-10T03:25:01.701Z,1260
2017-06-10T03:26:01.692Z,1216
2017-06-10T03:27:01.689Z,1240
2017-06-10T03:28:01.685Z,1268
2017-06-10T03:29:01.679Z,1240
2017-06-10T03:30:01.928Z,1092
2017-06-10T03:31:01.673Z,992
2017-06-10T03:32:01.667Z,1064
2017-06-10T03:33:01.662Z,1280
2017-06-10T03:34:01.660Z,1480
2017-06-10T03:35:01.653Z,1448
2017-06-10T03:36:01.651Z,1332
2017-06-10T03:37:01.648Z,1200
2017-06-10T03:38:01.642Z,1136
2017-06-10T03:39:01.646Z,1064
2017-06-10T03:40:01.637Z,1116
2017-06-10T03:41:01.632Z,1164
2017-06-10T03:42:01.627Z,1220
2017-06-10T03:43:01.626Z,1260
2017-06-10T03:44:01.617Z,1176
2017-06-10T03:45:01.013Z,1168
2017-06-10T03:46:01.307Z,1384
2017-06-10T03:47:01.609Z,1548
2017-06-10T03:48:01.300Z,1752
2017-06-10T03:49:01.605Z,1928
2017-06-10T03:50:01.595Z,2088
2017-06-10T03:51:01.592Z,2244
2017-06-10T03:52:01.599Z,2380
2017-06-10T03:53:01.590Z,2540
2017-06-10T03:54:01.578Z,2816
2017-06-10T03:55:01.579Z,3164
2017-06-10T03:56:01.576Z,3744
2017-06-10T03:57:01.598Z,4916
2017-06-10T03:58:01.564Z,3880
2017-06-10T03:59:01.558Z,4012
2017-06-10T04:00:01.554Z,5024
2017-06-10T04:01:01.551Z,4992
2017-06-10T04:02:01.545Z,4600
2017-06-10T04:03:01.541Z,4644
2017-06-10T04:04:01.540Z,4364
2017-06-10T04:05:01.538Z,4224
2017-06-10T04:06:01.532Z,4380
2017-06-10T04:07:01.529Z,5080
2017-06-10T04:08:01.526Z,7020
2017-06-10T04:09:01.519Z,7172
2017-06-10T04:10:01.525Z,5692
2017-06-10T04:11:01.516Z,5268
2017-06-10T04:12:01.514Z,5496
2017-06-10T04:13:01.511Z,5536
2017-06-10T04:14:01.205Z,5212
2017-06-10T04:15:01.198Z,5432
2017-06-10T04:16:01.502Z,5976
2017-06-10T04:17:01.199Z,7304
2017-06-10T04:18:01.497Z,7276
2017-06-10T04:19:01.495Z,9112
2017-06-10T04:20:01.491Z,11328
2017-06-10T04:21:01.493Z,12156
2017-06-10T04:22:01.182Z,13120
2017-06-10T04:23:01.485Z,13120
2017-06-10T04:24:01.484Z,13504
2017-06-10T04:25:01.498Z,14048
2017-06-10T04:26:01.485Z,13664
2017-06-10T04:27:01.478Z,13888
2017-06-10T04:28:01.506Z,14400
2017-06-10T04:29:01.477Z,12960
2017-06-10T04:30:01.475Z,14080
2017-06-10T04:31:01.477Z,15456
2017-06-10T04:32:01.475Z,15744
2017-06-10T04:33:01.173Z,17856
2017-06-10T04:34:01.478Z,16608
2017-06-10T04:35:01.477Z,16288
2017-06-10T04:36:01.488Z,19008
2017-06-10T04:37:01.484Z,17376
2017-06-10T04:38:01.488Z,17152
2017-06-10T04:39:01.490Z,18912
2017-06-10T04:40:01.492Z,18048
2017-06-10T04:41:01.496Z,20384
2017-06-10T04:42:01.497Z,23072
2017-06-10T04:43:01.500Z,21728
2017-06-10T04:44:01.511Z,21728
2017-06-10T04:45:01.513Z,23840
2017-06-10T04:46:01.517Z,24896
2017-06-10T04:47:01.523Z,23488
2017-06-10T04:48:01.224Z,22208
2017-06-10T04:49:01.533Z,23232
2017-06-10T04:50:01.239Z,25312
2017-06-10T04:51:00.941Z,25792
2017-06-10T04:52:01.553Z,25056
2017-06-10T04:53:01.259Z,24896
2017-06-10T04:54:01.566Z,25792
2017-06-10T04:55:01.579Z,26240
2017-06-10T04:56:01.582Z,25504
2017-06-10T04:57:01.591Z,24640
2017-06-10T04:58:01.600Z,24832
2017-06-10T04:59:01.620Z,26432
2017-06-10T05:00:01.315Z,27904
2017-06-10T05:01:01.630Z,28352
2017-06-10T05:02:01.635Z,28256
2017-06-10T05:03:01.343Z,28384
2017-06-10T05:04:01.655Z,28896
2017-06-10T05:05:01.662Z,25088
2017-06-10T05:06:01.676Z,29856
2017-06-10T05:07:01.683Z,28160
2017-06-10T05:08:01.691Z,29024
2017-06-10T05:09:01.701Z,32128
2017-06-10T05:10:01.719Z,32928
2017-06-10T05:11:01.421Z,31616
2017-06-10T05:12:01.732Z,32160
2017-06-10T05:13:01.746Z,34080
2017-06-10T05:14:01.456Z,32768
2017-06-10T05:15:01.766Z,31712
2017-06-10T05:16:01.775Z,33184
2017-06-10T05:17:01.792Z,33152
2017-06-10T05:18:01.799Z,30976
2017-06-10T05:19:01.812Z,32064
2017-06-10T05:20:01.820Z,34144
2017-06-10T05:21:01.838Z,33952
2017-06-10T05:22:01.846Z,34624
2017-06-10T05:23:01.867Z,36160
2017-06-10T05:24:01.871Z,35072
2017-06-10T05:25:01.880Z,32416
2017-06-10T05:26:01.893Z,33344
2017-06-10T05:27:01.909Z,37344
2017-06-10T05:28:01.922Z,38080
2017-06-10T05:29:01.936Z,36576
2017-06-10T05:30:01.939Z,35424
2017-06-10T05:31:01.955Z,33984
2017-06-10T05:32:01.663Z,34176
2017-06-10T05:33:01.976Z,36224
2017-06-10T05:34:01.993Z,37728
2017-06-10T05:35:02.006Z,37888
2017-06-10T05:36:01.715Z,38752
2017-06-10T05:37:02.033Z,40672
2017-06-10T05:38:02.039Z,41024
2017-06-10T05:39:02.054Z,39616
2017-06-10T05:40:02.067Z,38976
2017-06-10T05:41:01.782Z,39488
2017-06-10T05:42:02.095Z,38816
2017-06-10T05:43:02.112Z,38496
2017-06-10T05:44:02.118Z,39744
2017-06-10T05:45:02.135Z,41760
2017-06-10T05:46:02.151Z,41760
2017-06-10T05:47:02.161Z,38176
2017-06-10T05:48:02.177Z,36864
2017-06-10T05:49:02.192Z,40064
2017-06-10T05:50:02.200Z,46272
2017-06-10T05:51:02.221Z,47904
2017-06-10T05:52:02.229Z,43360
2017-06-10T05:53:01.943Z,37856
2017-06-10T05:54:01.958Z,38208
2017-06-10T05:55:01.998Z,42528
2017-06-10T05:56:02.285Z,44224
2017-06-10T05:57:01.993Z,43776
2017-06-10T05:58:02.310Z,42080
2017-06-10T05:59:02.328Z,42368
2017-06-10T06:00:02.340Z,43488
2017-06-10T06:01:02.052Z,50176
2017-06-10T06:02:02.073Z,50528
2017-06-10T06:03:02.381Z,50304
2017-06-10T06:04:02.411Z,49312
2017-06-10T06:05:02.414Z,49568
2017-06-10T06:06:02.434Z,51936
2017-06-10T06:07:02.442Z,53600
2017-06-10T06:08:02.459Z,53120
2017-06-10T06:09:02.475Z,51392
2017-06-10T06:10:02.485Z,51040
2017-06-10T06:11:02.502Z,52256
2017-06-10T06:12:02.214Z,50560
2017-06-10T06:13:02.537Z,47552
2017-06-10T06:14:02.553Z,45920
2017-06-10T06:15:02.565Z,44608
2017-06-10T06:16:02.580Z,44160
2017-06-10T06:17:02.596Z,44992
2017-06-10T06:18:02.335Z,45376
2017-06-10T06:19:02.633Z,45792
2017-06-10T06:20:02.644Z,44800
2017-06-10T06:21:02.661Z,42720
2017-06-10T06:22:02.680Z,38560
2017-06-10T06:23:02.694Z,35296
2017-06-10T06:24:02.714Z,33568
2017-06-10T06:25:02.733Z,33696
2017-06-10T06:26:02.747Z,34336
2017-06-10T06:27:02.767Z,33888
2017-06-10T06:28:02.787Z,32000
2017-06-10T06:29:02.796Z,29792
2017-06-10T06:30:02.812Z,27200
2017-06-10T06:31:02.831Z,25920
2017-06-10T06:32:02.557Z,24064
2017-06-10T06:33:02.866Z,21216
2017-06-10T06:34:02.880Z,18624
2017-06-10T06:35:02.900Z,18688
2017-06-10T06:36:02.915Z,24000
2017-06-10T06:37:02.630Z,33088
2017-06-10T06:38:02.953Z,41760
2017-06-10T06:39:02.967Z,49344
2017-06-10T06:40:02.985Z,52992
2017-06-10T06:41:03.004Z,55744
2017-06-10T06:42:03.023Z,56992
2017-06-10T06:43:03.038Z,54336
2017-06-10T06:44:03.051Z,48064
2017-06-10T06:45:03.082Z,43776
2017-06-10T06:46:03.085Z,45120
2017-06-10T06:47:03.104Z,45920
2017-06-10T06:48:03.121Z,50560
2017-06-10T06:49:03.137Z,59968
2017-06-10T06:50:03.153Z,66752
2017-06-10T06:51:02.866Z,68960
2017-06-10T06:52:03.189Z,70336
2017-06-10T06:53:03.202Z,73888
2017-06-10T06:54:02.917Z,79712
2017-06-10T06:55:03.233Z,85024
2017-06-10T06:56:03.252Z,93792
2017-06-10T06:57:02.965Z,108384
2017-06-10T06:58:03.280Z,113792
2017-06-10T06:59:03.298Z,118656
2017-06-10T07:00:03.019Z,117792
2017-06-10T07:01:03.337Z,110560
2017-06-10T07:02:03.351Z,89344
2017-06-10T07:03:03.359Z,64864
2017-06-10T07:04:03.378Z,46208
2017-06-10T07:05:03.395Z,37056
2017-06-10T07:06:03.411Z,41088
2017-06-10T07:07:03.426Z,58176
2017-06-10T07:08:03.440Z,85088
2017-06-10T07:09:03.455Z,117440
2017-06-10T07:10:03.475Z,150752
2017-06-10T07:11:03.488Z,164160
2017-06-10T07:12:03.502Z,171168
2017-06-10T07:13:03.215Z,168480
2017-06-10T07:14:03.539Z,152704
2017-06-10T07:15:03.550Z,125152
2017-06-10T07:16:03.267Z,102752
2017-06-10T07:17:03.581Z,93120
2017-06-10T07:18:03.598Z,98496
2017-06-10T07:19:03.615Z,104960
2017-06-10T07:20:03.628Z,115776
2017-06-10T07:21:03.644Z,130016
2017-06-10T07:22:03.664Z,137600
2017-06-10T07:23:03.680Z,136672
2017-06-10T07:24:03.688Z,123616
2017-06-10T07:25:03.704Z,115328
2017-06-10T07:26:03.719Z,110336
2017-06-10T07:27:03.433Z,111328
2017-06-10T07:28:03.454Z,108192
2017-06-10T07:29:03.776Z,82400
2017-06-10T07:30:03.491Z,85536
2017-06-10T07:31:03.800Z,83136
2017-06-10T07:32:03.815Z,75616
2017-06-10T07:33:03.832Z,71616
2017-06-10T07:34:03.844Z,73824
2017-06-10T07:35:03.864Z,30848
2017-06-10T07:36:03.576Z,80896
2017-06-10T07:37:03.285Z,82848
2017-06-10T07:38:03.909Z,82688
2017-06-10T07:39:03.927Z,78400
2017-06-10T07:40:03.946Z,69952
2017-06-10T07:41:03.956Z,59200
2017-06-10T07:42:03.971Z,49280
2017-06-10T07:43:03.991Z,41088
2017-06-10T07:44:03.703Z,30912
2017-06-10T07:45:04.020Z,23008
2017-06-10T07:46:04.042Z,18432
2017-06-10T07:47:04.053Z,15040
2017-06-10T07:48:04.076Z,13280
2017-06-10T07:49:04.082Z,14400
2017-06-10T07:50:03.796Z,17312
2017-06-10T07:51:04.115Z,20800
2017-06-10T07:52:04.136Z,23968
2017-06-10T07:53:03.843Z,16168
2017-06-10T07:54:04.165Z,15296
2017-06-10T07:55:04.190Z,37568
2017-06-10T07:56:03.892Z,18592
2017-06-10T07:57:04.214Z,19296
2017-06-10T07:58:04.225Z,46944
2017-06-10T07:59:04.240Z,39040
2017-06-10T08:00:04.252Z,38912
2017-06-10T08:01:03.963Z,48704
2017-06-10T08:02:04.283Z,15132
2017-06-10T08:03:04.005Z,50400
2017-06-10T08:04:04.306Z,50528
2017-06-10T08:05:04.022Z,54304
2017-06-10T08:06:04.035Z,50656
2017-06-10T08:07:04.351Z,56064
2017-06-10T08:08:04.361Z,54848
2017-06-10T08:09:04.374Z,53632
2017-06-10T08:10:04.086Z,20192
2017-06-10T08:11:04.404Z,13900
2017-06-10T08:12:04.412Z,15512
2017-06-10T08:13:04.428Z,17312
2017-06-10T08:14:04.138Z,16008
2017-06-10T08:15:04.158Z,16960
2017-06-10T08:16:04.467Z,51712
2017-06-10T08:17:04.174Z,32000
2017-06-10T08:18:04.491Z,76192
2017-06-10T08:19:04.205Z,75872
2017-06-10T08:20:04.517Z,18240
2017-06-10T08:21:04.531Z,26656
2017-06-10T08:22:04.546Z,58048
2017-06-10T08:23:04.556Z,13588
2017-06-10T08:24:04.264Z,90912
2017-06-10T08:25:04.580Z,88576
2017-06-10T08:26:03.986Z,15552
2017-06-10T08:27:04.603Z,92416
2017-06-10T08:28:04.613Z,91776
2017-06-10T08:29:04.322Z,90592
2017-06-10T08:30:04.637Z,69504
2017-06-10T08:31:04.649Z,20544
2017-06-10T08:32:04.690Z,87584
2017-06-10T08:33:04.673Z,67136
2017-06-10T08:34:04.684Z,89984
2017-06-10T08:35:04.699Z,93600
2017-06-10T08:36:04.408Z,92384
2017-06-10T08:37:04.723Z,17568
2017-06-10T08:38:04.739Z,31488
2017-06-10T08:39:04.748Z,14912
2017-06-10T08:40:04.764Z,15516
2017-06-10T08:41:05.157Z,92768
2017-06-10T08:42:04.484Z,95808
2017-06-10T08:43:04.797Z,84896
2017-06-10T08:44:04.813Z,10288
2017-06-10T08:45:04.823Z,12128
2017-06-10T08:46:04.544Z,87648
2017-06-10T08:47:04.852Z,92832
2017-06-10T08:48:04.860Z,94272
2017-06-10T08:49:04.878Z,39232
2017-06-10T08:50:04.883Z,34752
2017-06-10T08:51:05.197Z,17600
2017-06-10T08:52:04.913Z,59392
2017-06-10T08:53:04.922Z,9568
2017-06-10T08:54:04.933Z,10100
2017-06-10T08:55:04.643Z,105344
2017-06-10T08:56:04.654Z,12520
2017-06-10T08:57:04.969Z,14240
2017-06-10T08:58:04.979Z,34656
2017-06-10T08:59:04.990Z,15868
2017-06-10T09:00:05.002Z,16832
2017-06-10T09:01:05.027Z,16928
2017-06-10T09:02:05.019Z,15956
2017-06-10T09:03:04.724Z,14664
2017-06-10T09:04:04.738Z,13836
2017-06-10T09:05:05.054Z,15220
2017-06-10T09:06:05.058Z,13684
2017-06-10T09:07:05.073Z,13312
2017-06-10T09:08:05.078Z,13972
2017-06-10T09:09:04.786Z,15156
2017-06-10T09:10:05.094Z,15664
2017-06-10T09:11:05.108Z,15256
2017-06-10T09:12:05.113Z,12856
2017-06-10T09:13:04.822Z,11916
2017-06-10T09:14:05.134Z,11992
2017-06-10T09:15:04.829Z,12908
2017-06-10T09:16:04.841Z,14784
2017-06-10T09:17:05.151Z,17856
2017-06-10T09:18:04.856Z,18976
2017-06-10T09:19:05.166Z,17120
2017-06-10T09:20:04.876Z,15848
2017-06-10T09:21:05.179Z,14824
2017-06-10T09:22:05.189Z,13688
2017-06-10T09:23:05.193Z,11700
2017-06-10T09:24:05.202Z,11016
2017-06-10T09:25:05.209Z,10984
2017-06-10T09:26:05.212Z,11784
2017-06-10T09:27:04.916Z,11648
2017-06-10T09:28:05.231Z,11580
2017-06-10T09:29:05.231Z,12108
2017-06-10T09:30:05.240Z,12608
2017-06-10T09:31:05.241Z,12956
2017-06-10T09:32:05.256Z,12548
2017-06-10T09:33:04.952Z,12772
2017-06-10T09:34:05.261Z,13596
2017-06-10T09:35:04.963Z,13984
2017-06-10T09:36:05.272Z,14120
2017-06-10T09:38:05.888Z,15052
2017-06-10T09:39:04.679Z,13836
2017-06-10T09:40:04.988Z,12464
2017-06-10T09:41:05.295Z,10752
2017-06-10T09:42:05.302Z,10932
2017-06-10T09:43:05.005Z,11372
2017-06-10T09:44:05.311Z,11576
2017-06-10T09:45:05.317Z,12532
2017-06-10T09:46:05.322Z,13272
2017-06-10T09:47:05.325Z,13724
2017-06-10T09:48:05.329Z,14728
2017-06-10T09:49:05.334Z,16384
2017-06-10T09:50:05.360Z,17952
2017-06-10T09:51:05.348Z,18176
2017-06-10T09:52:04.750Z,17344
2017-06-10T09:53:05.353Z,15808
2017-06-10T09:54:05.357Z,14928
2017-06-10T09:55:05.367Z,15752
2017-06-10T09:56:05.370Z,16704
2017-06-10T09:57:05.069Z,16480
2017-06-10T09:58:05.076Z,16064
2017-06-10T09:59:05.081Z,15464
2017-06-10T10:00:05.389Z,14200
2017-06-10T10:01:05.391Z,12980
2017-06-10T10:02:05.398Z,11896
2017-06-10T10:03:05.097Z,10800
2017-06-10T10:04:05.408Z,10652
2017-06-10T10:05:05.111Z,11176
2017-06-10T10:06:04.810Z,12228
2017-06-10T10:07:04.813Z,13532
2017-06-10T10:08:05.428Z,14396
2017-06-10T10:09:05.429Z,14904
2017-06-10T10:10:05.439Z,16088
2017-06-10T10:11:05.437Z,16928
2017-06-10T10:12:05.141Z,16704
2017-06-10T10:13:05.145Z,15516
2017-06-10T10:14:05.451Z,14588
2017-06-10T10:15:05.458Z,13980
2017-06-10T10:16:05.461Z,13304
2017-06-10T10:17:05.465Z,12360
2017-06-10T10:18:05.466Z,11652
2017-06-10T10:19:05.473Z,11376
2017-06-10T10:20:05.479Z,11552
2017-06-10T10:21:05.484Z,12280
2017-06-10T10:22:05.183Z,13080
2017-06-10T10:23:05.705Z,14516
2017-06-10T10:24:05.497Z,14628
2017-06-10T10:25:05.503Z,14844
2017-06-10T10:26:05.501Z,15092
2017-06-10T10:27:05.511Z,16352
2017-06-10T10:28:05.515Z,17568
2017-06-10T10:29:05.523Z,18400
2017-06-10T10:30:05.530Z,19360
2017-06-10T10:31:05.533Z,20096
2017-06-10T10:32:05.530Z,20576
2017-06-10T10:33:05.537Z,21312
2017-06-10T10:36:05.550Z,19648
2017-06-10T10:37:05.558Z,18240
2017-06-10T10:38:05.561Z,17888
2017-06-10T10:39:05.564Z,17056
2017-06-10T10:40:05.570Z,15504
2017-06-10T10:41:05.573Z,14240
2017-06-10T10:42:05.575Z,12700
2017-06-10T10:43:05.614Z,11276
2017-06-10T10:44:05.587Z,9952
2017-06-10T10:45:05.290Z,9344
2017-06-10T10:46:05.600Z,8944
2017-06-10T10:47:05.603Z,8252
2017-06-10T10:48:05.610Z,8344
2017-06-10T10:49:05.611Z,8552
2017-06-10T10:50:05.617Z,9100
2017-06-10T10:51:05.625Z,9528
2017-06-10T10:52:05.628Z,9576
2017-06-10T10:53:05.638Z,9440
2017-06-10T10:54:05.639Z,9104
2017-06-10T10:55:05.645Z,8884
2017-06-10T10:56:05.651Z,9464
2017-06-10T10:57:05.651Z,9944
2017-06-10T10:58:05.657Z,10104
2017-06-10T10:59:05.665Z,10676
2017-06-10T11:00:05.670Z,10948
2017-06-10T11:01:05.674Z,11136
2017-06-10T11:02:05.672Z,12236
2017-06-10T11:03:05.681Z,12964
2017-06-10T11:04:05.382Z,11848
2017-06-10T11:05:05.688Z,10960
2017-06-10T11:06:05.387Z,10644
2017-06-10T11:07:05.397Z,10412
2017-06-10T11:08:05.702Z,10952
2017-06-10T11:09:05.703Z,10872
2017-06-10T11:10:05.711Z,10800
2017-06-10T11:11:05.718Z,10656
2017-06-10T11:12:05.418Z,9160
2017-06-10T11:13:05.423Z,8128
2017-06-10T11:14:05.727Z,7720
2017-06-10T11:15:05.730Z,7828
2017-06-10T11:16:05.731Z,8000
2017-06-10T11:17:05.736Z,8536
2017-06-10T11:18:05.743Z,8264
2017-06-10T11:19:05.747Z,7616
2017-06-10T11:20:05.446Z,7136
2017-06-10T11:21:05.752Z,6944
2017-06-10T11:22:05.753Z,6792
2017-06-10T11:23:05.760Z,6904
2017-06-10T11:24:05.763Z,7388
2017-06-10T11:25:05.768Z,8100
2017-06-10T11:26:05.772Z,8920
2017-06-10T11:27:05.169Z,10500
2017-06-10T11:28:05.473Z,11820
2017-06-10T11:29:05.777Z,12652
2017-06-10T11:30:05.479Z,13712
2017-06-10T11:31:05.787Z,13744
2017-06-10T11:32:05.792Z,13620
2017-06-10T11:33:05.791Z,13600
2017-06-10T11:34:05.796Z,13400
2017-06-10T11:35:05.803Z,13060
2017-06-10T11:36:05.806Z,12848
2017-06-10T11:37:05.505Z,12060
2017-06-10T11:38:05.808Z,11296
2017-06-10T11:39:05.815Z,11096
2017-06-10T11:40:05.514Z,10176
2017-06-10T11:41:05.519Z,10480
2017-06-10T11:42:05.826Z,11812
2017-06-10T11:43:05.227Z,12104
2017-06-10T11:44:05.226Z,12692
2017-06-10T11:45:05.836Z,13284
2017-06-10T11:46:05.844Z,12440
2017-06-10T11:47:05.541Z,11760
2017-06-10T11:48:05.853Z,10720
2017-06-10T11:49:05.548Z,10008
2017-06-10T11:50:04.945Z,9452
2017-06-10T11:51:05.858Z,8892
2017-06-10T11:52:05.560Z,8548
2017-06-10T11:53:05.869Z,8812
2017-06-10T11:54:05.871Z,10296
2017-06-10T11:55:05.874Z,11904
2017-06-10T11:56:05.882Z,12372
2017-06-10T11:57:05.880Z,11924
2017-06-10T11:58:05.885Z,11816
2017-06-10T11:59:05.891Z,11712
2017-06-10T12:00:05.593Z,12928
2017-06-10T12:01:05.901Z,14452
2017-06-10T12:02:05.906Z,14796
2017-06-10T12:03:05.912Z,14756
2017-06-10T12:04:05.916Z,14708
2017-06-10T12:05:05.617Z,13708
2017-06-10T12:06:05.921Z,13712
2017-06-10T12:07:05.627Z,14140
2017-06-10T12:08:05.937Z,15136
2017-06-10T12:09:05.940Z,15692
2017-06-10T12:10:05.953Z,15012
2017-06-10T12:11:06.298Z,13952
2017-06-10T12:12:05.949Z,13660
2017-06-10T12:13:05.953Z,12732
2017-06-10T12:14:05.961Z,11280
2017-06-10T12:15:05.968Z,10200
2017-06-10T12:16:05.969Z,9792
2017-06-10T12:17:05.975Z,9232
2017-06-10T12:18:05.975Z,8480
2017-06-10T12:19:05.682Z,7984
2017-06-10T12:20:05.682Z,7644
2017-06-10T12:21:05.387Z,7552
2017-06-10T12:22:05.702Z,7700
2017-06-10T12:23:05.694Z,7952
2017-06-10T12:24:05.703Z,8268
2017-06-10T12:25:06.016Z,8776
2017-06-10T12:26:06.015Z,9548
2017-06-10T12:27:05.714Z,10012
2017-06-10T12:28:06.021Z,10792
2017-06-10T12:29:05.726Z,10648
2017-06-10T12:30:05.729Z,10088
2017-06-10T12:31:05.737Z,10420
2017-06-10T12:32:06.075Z,9816
2017-06-10T12:33:05.743Z,9112
2017-06-10T12:34:05.744Z,8604
2017-06-10T12:35:05.756Z,8800
2017-06-10T12:36:06.063Z,9836
2017-06-10T12:37:06.068Z,10376
2017-06-10T12:38:05.765Z,11104
2017-06-10T12:39:06.069Z,11848
2017-06-10T12:40:06.075Z,11944
2017-06-10T12:41:05.779Z,11648
2017-06-10T12:42:06.088Z,11156
2017-06-10T12:43:06.086Z,10164
2017-06-10T12:44:06.093Z,9872
2017-06-10T12:45:05.794Z,10392
2017-06-10T12:46:06.099Z,10772
2017-06-10T12:47:06.105Z,11052
2017-06-10T12:48:06.109Z,11168
2017-06-10T12:49:06.117Z,10288
2017-06-10T12:50:06.117Z,10056
2017-06-10T12:51:05.819Z,10100
2017-06-10T12:52:06.127Z,10336
2017-06-10T12:53:06.130Z,10500
2017-06-10T12:54:05.832Z,10796
2017-06-10T12:55:05.834Z,10924
2017-06-10T12:56:06.147Z,10696
2017-06-10T12:57:06.147Z,10872
2017-06-10T12:58:06.151Z,11480
2017-06-10T12:59:05.850Z,12712
2017-06-10T13:00:05.857Z,13276
2017-06-10T13:01:05.861Z,12956
2017-06-10T13:02:06.166Z,12884
2017-06-10T13:03:06.174Z,12992
2017-06-10T13:04:06.176Z,13148
2017-06-10T13:05:06.178Z,12840
2017-06-10T13:06:06.186Z,12348
2017-06-10T13:07:05.881Z,11880
2017-06-10T13:08:06.193Z,11588
2017-06-10T13:09:06.194Z,11360
2017-06-10T13:10:06.201Z,11336
2017-06-10T13:11:05.899Z,11252
2017-06-10T13:12:06.215Z,11068
2017-06-10T13:13:06.213Z,11060
2017-06-10T13:14:06.217Z,11156
2017-06-10T13:15:06.220Z,11284
2017-06-10T13:16:06.227Z,11704
2017-06-10T13:17:06.241Z,12644
2017-06-10T13:18:05.930Z,13948
2017-06-10T13:19:06.241Z,14620
2017-06-10T13:20:05.945Z,14404